Hovedside
METAR-TAF:

METAR-TAF

Lufthavner :

Växjö lufthavn

Växjö, Sverige

breddegrad: 56-51N, lengdegrad: 014-50E, høyde over havet: 199 m

Gjeldene værobservasjon

Denne rapporten ble laget for 43 minutter siden, klokken 04:20 UTC
Vind 5 kt fra Nordøst
Temperatur 9°C
Luftfuktighet 76%
Trykk 1012 hPa
Sikt 10 km eller mer
ingen skyer under 1500 m og ingen bygeskyer

METAR: ESMX 250420Z 04005KT CAVOK 09/05 Q1012

Tid: 07:03 (05:03 UTC)

Varsel

Denne rapporten ble laget for 2 timer og 33 minutter siden, klokken 02:30 UTC
Varsel gyldig fra 25. klokken 03 UTC til 25. klokken 12 UTC
Vind 5 kt fra Nordøst
Sikt 10 km eller mer
ingen skyer under 1500 m og ingen bygeskyer
Blir
fra 25. klokken 05 UTC til 25. klokken 07 UTC
Vind 10 kt fra Øst-sørøst

TAF: ESMX 250230Z 2503/2512 05005KT CAVOK BECMG 2505/2507 11010KT

Værobservasjoner og værvarsel for over 4000 flyplasser (METAR- og TAF-rapporter).

Tilgjengelige stasjoner er representert av de røde og gule prikkene på kartet.

Hold musepekeren over prikken for å se navnet på stasjonen.

Klikk så for å se værobservasjoner og -varsler.

For å forandre kartet kan du klikke på den grønne knappen med svart kryss for å zoome inn, på den grønne knappen med strek for å zoome ut, eller på de grønne pilene for å se tilstøtende kart.


METAR-TAF: